createdAt,value
2018-06-08T00:00:57.724Z,20.34
2018-06-08T00:01:57.736Z,20.34
2018-06-08T00:02:57.748Z,20.46
2018-06-08T00:03:57.762Z,20.49
2018-06-08T00:04:57.779Z,20.34
2018-06-08T00:05:57.794Z,20.28
2018-06-08T00:06:57.801Z,20.06
2018-06-08T00:07:57.815Z,20.12
2018-06-08T00:08:57.828Z,20.03
2018-06-08T00:09:57.855Z,19.97
2018-06-08T00:10:57.863Z,20.02
2018-06-08T00:11:57.870Z,20.00
2018-06-08T00:12:57.888Z,19.94
2018-06-08T00:13:57.902Z,19.75
2018-06-08T00:14:57.907Z,19.76
2018-06-08T00:15:57.920Z,19.73
2018-06-08T00:16:57.947Z,19.76
2018-06-08T00:17:57.946Z,19.84
2018-06-08T00:18:57.962Z,19.87
2018-06-08T00:19:57.975Z,19.86
2018-06-08T00:20:57.990Z,19.83
2018-06-08T00:21:58.000Z,20.00
2018-06-08T00:22:58.018Z,19.93
2018-06-08T00:23:58.032Z,20.00
2018-06-08T00:24:58.037Z,19.90
2018-06-08T00:25:58.053Z,19.97
2018-06-08T00:26:58.063Z,19.83
2018-06-08T00:27:58.077Z,19.87
2018-06-08T00:28:58.109Z,19.91
2018-06-08T00:29:58.105Z,19.78
2018-06-08T00:30:58.124Z,19.86
2018-06-08T00:31:58.135Z,19.87
2018-06-08T00:32:58.147Z,19.78
2018-06-08T00:33:58.158Z,19.75
2018-06-08T00:34:58.180Z,19.73
2018-06-08T00:35:58.180Z,19.70
2018-06-08T00:36:58.194Z,19.76
2018-06-08T00:37:58.210Z,19.79
2018-06-08T00:38:58.234Z,19.86
2018-06-08T00:39:58.239Z,19.73
2018-06-08T00:40:58.249Z,19.72
2018-06-08T00:41:58.260Z,19.65
2018-06-08T00:42:58.302Z,19.60
2018-06-08T00:43:58.284Z,19.57
2018-06-08T00:44:58.345Z,19.55
2018-06-08T00:45:58.316Z,19.57
2018-06-08T00:46:58.328Z,19.35
2018-06-08T00:47:58.340Z,19.28
2018-06-08T00:48:58.354Z,19.28
2018-06-08T00:49:58.364Z,19.11
2018-06-08T00:50:58.401Z,19.10
2018-06-08T00:51:58.390Z,19.11
2018-06-08T00:52:58.404Z,19.21
2018-06-08T00:53:58.415Z,19.25
2018-06-08T00:54:58.427Z,19.39
2018-06-08T00:55:58.443Z,19.39
2018-06-08T00:56:58.477Z,19.35
2018-06-08T00:57:58.469Z,19.29
2018-06-08T00:58:58.489Z,19.29
2018-06-08T00:59:58.493Z,19.23
2018-06-08T01:00:58.511Z,19.24
2018-06-08T01:01:58.518Z,19.33
2018-06-08T01:02:58.530Z,19.28
2018-06-08T01:03:58.551Z,19.35
2018-06-08T01:04:58.578Z,19.25
2018-06-08T01:05:58.574Z,19.24
2018-06-08T01:06:58.580Z,19.14
2018-06-08T01:07:58.596Z,19.14
2018-06-08T01:09:06.518Z,19.08
2018-06-08T01:11:02.744Z,18.97
2018-06-08T01:12:02.725Z,18.94
2018-06-08T01:14:07.326Z,18.95
2018-06-08T01:15:07.293Z,18.97
2018-06-08T01:17:11.866Z,18.87
2018-06-08T01:18:11.791Z,18.72
2018-06-08T01:20:16.549Z,18.67
2018-06-08T01:21:16.304Z,18.50
2018-06-08T01:23:20.910Z,18.42
2018-06-08T01:24:20.824Z,18.40
2018-06-08T01:26:25.378Z,18.33
2018-06-08T01:27:25.472Z,18.33
2018-06-08T01:28:25.375Z,18.40
2018-06-08T01:29:25.487Z,18.42
2018-06-08T01:30:25.511Z,18.43
2018-06-08T01:31:25.433Z,18.44
2018-06-08T01:32:25.439Z,18.40
2018-06-08T01:33:25.440Z,18.44
2018-06-08T01:34:25.459Z,18.52
2018-06-08T01:35:25.465Z,18.42
2018-06-08T01:36:25.489Z,18.46
2018-06-08T01:37:25.491Z,18.43
2018-06-08T01:38:25.500Z,18.47
2018-06-08T01:39:25.510Z,18.46
2018-06-08T01:40:25.548Z,18.52
2018-06-08T01:41:25.547Z,18.49
2018-06-08T01:42:25.551Z,18.50
2018-06-08T01:43:25.565Z,18.52
2018-06-08T01:44:25.573Z,18.46
2018-06-08T01:45:25.590Z,18.44
2018-06-08T01:46:25.600Z,18.40
2018-06-08T01:47:25.618Z,18.49
2018-06-08T01:48:25.632Z,18.44
2018-06-08T01:49:25.646Z,18.46
2018-06-08T01:50:25.677Z,18.44
2018-06-08T01:51:25.676Z,18.37
2018-06-08T01:52:25.672Z,18.21
2018-06-08T01:53:25.688Z,18.18
2018-06-08T01:54:25.702Z,18.02
2018-06-08T01:55:25.711Z,18.09
2018-06-08T01:56:25.724Z,17.99
2018-06-08T01:57:25.733Z,17.85
2018-06-08T01:58:25.774Z,17.85
2018-06-08T01:59:25.761Z,17.85
2018-06-08T02:00:25.770Z,17.76
2018-06-08T02:01:25.782Z,17.87
2018-06-08T02:02:25.797Z,17.97
2018-06-08T02:03:25.820Z,18.00
2018-06-08T02:04:25.828Z,18.07
2018-06-08T02:05:25.840Z,18.09
2018-06-08T02:06:25.849Z,18.09
2018-06-08T02:07:25.858Z,18.15
2018-06-08T02:08:25.871Z,18.15
2018-06-08T02:09:25.878Z,18.17
2018-06-08T02:10:25.893Z,18.13
2018-06-08T02:11:25.916Z,18.24
2018-06-08T02:12:25.920Z,18.18
2018-06-08T02:13:25.932Z,18.18
2018-06-08T02:14:25.941Z,18.21
2018-06-08T02:15:25.953Z,18.33
2018-06-08T02:16:25.965Z,18.37
2018-06-08T02:17:25.981Z,18.28
2018-06-08T02:18:26.002Z,18.29
2018-06-08T02:19:26.002Z,18.15
2018-06-08T02:20:26.016Z,18.10
2018-06-08T02:21:26.036Z,18.06
2018-06-08T02:22:26.115Z,17.95
2018-06-08T02:23:26.061Z,17.95
2018-06-08T02:24:26.065Z,17.92
2018-06-08T02:25:26.080Z,17.94
2018-06-08T02:26:26.087Z,17.89
2018-06-08T02:27:26.097Z,17.78
2018-06-08T02:28:26.117Z,17.76
2018-06-08T02:29:26.123Z,17.74
2018-06-08T02:30:26.141Z,17.71
2018-06-08T02:31:26.150Z,17.87
2018-06-08T02:32:26.159Z,17.74
2018-06-08T02:33:26.173Z,17.87
2018-06-08T02:34:26.218Z,17.88
2018-06-08T02:35:26.200Z,17.82
2018-06-08T02:36:26.208Z,17.85
2018-06-08T02:37:26.219Z,17.89
2018-06-08T02:38:26.232Z,17.89
2018-06-08T02:39:26.245Z,17.87
2018-06-08T02:40:26.261Z,17.89
2018-06-08T02:41:26.318Z,17.92
2018-06-08T02:42:26.279Z,17.92
2018-06-08T02:43:26.299Z,17.85
2018-06-08T02:44:26.306Z,17.85
2018-06-08T02:45:26.317Z,17.85
2018-06-08T02:46:26.328Z,17.87
2018-06-08T02:47:26.342Z,17.76
2018-06-08T02:48:26.363Z,17.88
2018-06-08T02:49:26.365Z,17.82
2018-06-08T02:50:26.377Z,17.88
2018-06-08T02:51:26.386Z,17.92
2018-06-08T02:52:26.399Z,18.02
2018-06-08T02:53:26.436Z,18.00
2018-06-08T02:54:26.432Z,18.00
2018-06-08T02:55:26.436Z,17.91
2018-06-08T02:56:26.449Z,17.88
2018-06-08T02:57:26.526Z,17.78
2018-06-08T02:58:26.472Z,17.88
2018-06-08T02:59:26.489Z,17.85
2018-06-08T03:00:26.497Z,17.99
2018-06-08T03:01:26.510Z,17.89
2018-06-08T03:02:26.522Z,17.92
2018-06-08T03:03:26.537Z,17.89
2018-06-08T03:04:26.550Z,17.89
2018-06-08T03:05:26.660Z,17.88
2018-06-08T03:06:26.569Z,17.89
2018-06-08T03:07:26.651Z,17.82
2018-06-08T03:08:26.589Z,17.84
2018-06-08T03:09:26.600Z,17.89
2018-06-08T03:10:26.614Z,17.84
2018-06-08T03:11:26.646Z,17.79
2018-06-08T03:12:26.637Z,17.70
2018-06-08T03:13:26.655Z,17.64
2018-06-08T03:14:26.665Z,17.62
2018-06-08T03:15:26.680Z,17.62
2018-06-08T03:16:26.683Z,17.59
2018-06-08T03:17:26.699Z,17.55
2018-06-08T03:18:26.709Z,17.63
2018-06-08T03:19:26.722Z,17.64
2018-06-08T03:20:26.739Z,17.50
2018-06-08T03:21:26.744Z,17.47
2018-06-08T03:22:26.758Z,17.41
2018-06-08T03:23:26.788Z,17.44
2018-06-08T03:24:26.825Z,17.51
2018-06-08T03:25:26.805Z,17.47
2018-06-08T03:26:26.814Z,17.57
2018-06-08T03:27:26.814Z,17.57
2018-06-08T03:28:26.825Z,17.54
2018-06-08T03:29:26.836Z,17.41
2018-06-08T03:30:26.853Z,17.50
2018-06-08T03:31:26.865Z,17.50
2018-06-08T03:32:26.872Z,17.48
2018-06-08T03:33:26.905Z,17.38
2018-06-08T03:34:26.902Z,17.33
2018-06-08T03:35:26.917Z,17.28
2018-06-08T03:36:26.921Z,17.22
2018-06-08T03:37:26.958Z,17.17
2018-06-08T03:38:26.943Z,17.22
2018-06-08T03:39:26.955Z,17.26
2018-06-08T03:40:26.965Z,17.29
2018-06-08T03:41:26.987Z,17.32
2018-06-08T03:42:27.011Z,17.23
2018-06-08T03:43:27.009Z,17.11
2018-06-08T03:44:27.014Z,17.13
2018-06-08T03:45:27.026Z,17.14
2018-06-08T03:46:27.041Z,17.14
2018-06-08T03:47:27.049Z,17.23
2018-06-08T03:48:27.065Z,17.23
2018-06-08T03:49:27.074Z,17.28
2018-06-08T03:50:27.088Z,17.26
2018-06-08T03:51:27.097Z,17.33
2018-06-08T03:52:27.108Z,17.30
2018-06-08T03:53:27.119Z,17.28
2018-06-08T03:54:27.128Z,17.28
2018-06-08T03:55:27.143Z,17.22
2018-06-08T03:56:27.158Z,17.22
2018-06-08T03:57:27.180Z,17.22
2018-06-08T03:58:27.178Z,17.28
2018-06-08T03:59:27.188Z,17.18
2018-06-08T04:00:27.213Z,17.15
2018-06-08T04:01:27.261Z,17.28
2018-06-08T04:02:27.245Z,17.29
2018-06-08T04:03:27.239Z,17.35
2018-06-08T04:04:27.249Z,17.32
2018-06-08T04:05:27.260Z,17.30
2018-06-08T04:06:27.271Z,17.33
2018-06-08T04:07:27.281Z,17.29
2018-06-08T04:08:27.292Z,17.32
2018-06-08T04:09:27.312Z,17.33
2018-06-08T04:10:27.329Z,17.40
2018-06-08T04:11:27.345Z,17.48
2018-06-08T04:12:27.340Z,17.41
2018-06-08T04:13:27.355Z,17.43
2018-06-08T04:14:27.365Z,17.32
2018-06-08T04:15:27.382Z,17.30
2018-06-08T04:16:27.393Z,17.32
2018-06-08T04:17:27.397Z,17.38
2018-06-08T04:18:27.412Z,17.43
2018-06-08T04:19:27.432Z,17.33
2018-06-08T04:20:27.439Z,17.33
2018-06-08T04:21:27.444Z,17.36
2018-06-08T04:22:27.467Z,17.29
2018-06-08T04:23:27.468Z,17.25
2018-06-08T04:24:27.481Z,17.18
2018-06-08T04:25:27.496Z,17.22
2018-06-08T04:26:27.503Z,17.20
2018-06-08T04:27:27.515Z,17.08
2018-06-08T04:28:27.526Z,17.17
2018-06-08T04:29:27.541Z,17.25
2018-06-08T04:30:27.550Z,17.22
2018-06-08T04:31:27.566Z,17.15
2018-06-08T04:32:27.574Z,17.22
2018-06-08T04:33:27.595Z,17.23
2018-06-08T04:34:27.602Z,17.17
2018-06-08T04:35:27.643Z,17.17
2018-06-08T04:36:27.619Z,17.18
2018-06-08T04:37:27.630Z,17.15
2018-06-08T04:38:27.649Z,17.22
2018-06-08T04:39:27.658Z,17.22
2018-06-08T04:40:27.715Z,17.20
2018-06-08T04:41:27.683Z,17.33
2018-06-08T04:42:27.696Z,17.38
2018-06-08T04:43:27.699Z,17.46
2018-06-08T04:44:27.713Z,17.50
2018-06-08T04:45:27.764Z,17.38
2018-06-08T04:46:27.736Z,17.33
2018-06-08T04:47:27.749Z,17.35
2018-06-08T04:48:27.808Z,17.33
2018-06-08T04:49:27.773Z,17.35
2018-06-08T04:50:27.786Z,17.30
2018-06-08T04:51:27.798Z,17.48
2018-06-08T04:52:27.804Z,17.47
2018-06-08T04:53:27.817Z,17.63
2018-06-08T04:54:27.829Z,17.62
2018-06-08T04:55:27.877Z,17.63
2018-06-08T04:56:27.852Z,17.59
2018-06-08T04:57:27.864Z,17.57
2018-06-08T04:58:27.877Z,17.59
2018-06-08T04:59:27.888Z,17.63
2018-06-08T05:00:27.903Z,17.71
2018-06-08T05:01:27.911Z,17.78
2018-06-08T05:02:27.922Z,17.78
2018-06-08T05:03:27.938Z,17.81
2018-06-08T05:04:27.956Z,17.82
2018-06-08T05:05:27.959Z,17.79
2018-06-08T05:06:27.969Z,17.84
2018-06-08T05:07:27.984Z,17.78
2018-06-08T05:08:27.997Z,17.91
2018-06-08T05:09:28.010Z,17.82
2018-06-08T05:10:28.018Z,17.92
2018-06-08T05:11:28.030Z,18.03
2018-06-08T05:12:28.037Z,18.06
2018-06-08T05:13:28.054Z,18.10
2018-06-08T05:14:28.083Z,18.22
2018-06-08T05:15:28.075Z,18.25
2018-06-08T05:16:28.103Z,18.25
2018-06-08T05:17:28.098Z,18.34
2018-06-08T05:18:28.113Z,18.43
2018-06-08T05:19:28.126Z,18.27
2018-06-08T05:20:28.138Z,18.24
2018-06-08T05:21:28.149Z,18.29
2018-06-08T05:22:28.158Z,18.15
2018-06-08T05:23:28.192Z,18.34
2018-06-08T05:24:28.181Z,18.52
2018-06-08T05:25:28.195Z,18.44
2018-06-08T05:26:28.207Z,18.44
2018-06-08T05:27:28.220Z,18.64
2018-06-08T05:28:28.231Z,18.74
2018-06-08T05:29:28.244Z,18.86
2018-06-08T05:30:28.255Z,18.79
2018-06-08T05:31:28.276Z,18.83
2018-06-08T05:32:28.280Z,18.84
2018-06-08T05:33:28.292Z,18.84
2018-06-08T05:34:28.306Z,18.87
2018-06-08T05:35:28.318Z,19.02
2018-06-08T05:36:28.328Z,18.92
2018-06-08T05:37:28.341Z,18.83
2018-06-08T05:38:28.385Z,18.80
2018-06-08T05:39:28.367Z,18.87
2018-06-08T05:40:28.377Z,18.82
2018-06-08T05:41:28.389Z,18.84
2018-06-08T05:42:28.408Z,18.82
2018-06-08T05:43:28.412Z,18.86
2018-06-08T05:44:28.431Z,18.94
2018-06-08T05:45:28.438Z,18.99
2018-06-08T05:46:28.453Z,19.02
2018-06-08T05:47:28.464Z,19.06
2018-06-08T05:48:28.508Z,19.11
2018-06-08T05:49:28.491Z,19.08
2018-06-08T05:50:28.508Z,19.29
2018-06-08T05:51:28.512Z,19.23
2018-06-08T05:52:28.533Z,19.35
2018-06-08T05:53:28.536Z,19.35
2018-06-08T05:54:28.551Z,19.50
2018-06-08T05:55:28.565Z,19.40
2018-06-08T05:56:28.572Z,19.50
2018-06-08T05:57:28.611Z,19.54
2018-06-08T05:58:28.609Z,19.55
2018-06-08T05:59:28.614Z,19.54
2018-06-08T06:00:28.626Z,19.57
2018-06-08T06:01:28.640Z,19.69
2018-06-08T06:02:28.651Z,19.73
2018-06-08T06:03:28.669Z,19.63
2018-06-08T06:04:28.679Z,19.69
2018-06-08T06:05:28.688Z,19.69
2018-06-08T06:06:28.702Z,19.70
2018-06-08T06:07:28.722Z,19.72
2018-06-08T06:08:28.732Z,19.70
2018-06-08T06:09:28.740Z,19.69
2018-06-08T06:10:28.760Z,19.70
2018-06-08T06:11:28.773Z,19.76
2018-06-08T06:12:29.054Z,19.78
2018-06-08T06:13:28.793Z,19.75
2018-06-08T06:14:28.805Z,19.84
2018-06-08T06:15:28.816Z,19.91
2018-06-08T06:16:28.832Z,19.84
2018-06-08T06:17:28.843Z,19.86
2018-06-08T06:18:28.858Z,19.90
2018-06-08T06:19:28.874Z,19.94
2018-06-08T06:20:28.889Z,19.86
2018-06-08T06:21:28.899Z,19.91
2018-06-08T06:22:28.909Z,19.91
2018-06-08T06:23:28.921Z,20.03
2018-06-08T06:24:28.945Z,20.10
2018-06-08T06:25:28.949Z,20.13
2018-06-08T06:26:28.961Z,20.10
2018-06-08T06:27:28.971Z,20.24
2018-06-08T06:28:28.983Z,20.31
2018-06-08T06:29:28.999Z,20.31
2018-06-08T06:30:29.011Z,20.28
2018-06-08T06:31:29.025Z,20.30
2018-06-08T06:32:29.044Z,20.49
2018-06-08T06:33:29.057Z,20.49
2018-06-08T06:34:29.069Z,20.58
2018-06-08T06:35:29.079Z,20.62
2018-06-08T06:36:29.092Z,20.68
2018-06-08T06:37:29.101Z,20.66
2018-06-08T06:38:29.115Z,20.76
2018-06-08T06:39:29.130Z,20.66
2018-06-08T06:40:29.142Z,20.62
2018-06-08T06:41:29.154Z,20.64
2018-06-08T06:42:29.175Z,20.56
2018-06-08T06:43:29.189Z,20.50
2018-06-08T06:44:29.198Z,20.42
2018-06-08T06:45:29.213Z,20.24
2018-06-08T06:46:29.224Z,20.38
2018-06-08T06:47:29.238Z,20.18
2018-06-08T06:48:29.251Z,20.21
2018-06-08T06:49:29.265Z,20.41
2018-06-08T06:50:29.277Z,20.35
2018-06-08T06:51:29.292Z,20.46
2018-06-08T06:52:29.322Z,20.46
2018-06-08T06:53:29.349Z,20.43
2018-06-08T06:54:29.331Z,20.51
2018-06-08T06:55:29.345Z,20.47
2018-06-08T06:56:29.354Z,20.47
2018-06-08T06:57:29.372Z,20.46
2018-06-08T06:58:29.384Z,20.49
2018-06-08T06:59:29.400Z,20.42
2018-06-08T07:00:29.409Z,20.51
2018-06-08T07:01:29.427Z,20.49
2018-06-08T07:02:29.435Z,20.43
2018-06-08T07:03:29.449Z,20.46
2018-06-08T07:04:29.480Z,20.47
2018-06-08T07:05:29.478Z,20.51
2018-06-08T07:06:29.497Z,20.43
2018-06-08T07:07:29.503Z,20.54
2018-06-08T07:08:29.515Z,20.68
2018-06-08T07:09:29.528Z,20.59
2018-06-08T07:10:29.541Z,20.56
2018-06-08T07:11:29.556Z,20.68
2018-06-08T07:12:29.572Z,20.68
2018-06-08T07:13:29.587Z,20.69
2018-06-08T07:14:29.596Z,20.68
2018-06-08T07:15:29.606Z,20.56
2018-06-08T07:16:29.622Z,20.56
2018-06-08T07:17:29.631Z,20.46
2018-06-08T07:18:29.645Z,20.47
2018-06-08T07:19:29.660Z,20.61
2018-06-08T07:20:29.671Z,20.66
2018-06-08T07:21:29.689Z,20.72
2018-06-08T07:22:29.701Z,20.93
2018-06-08T07:23:29.717Z,20.98
2018-06-08T07:24:29.726Z,21.09
2018-06-08T07:25:29.738Z,21.23
2018-06-08T07:26:29.754Z,21.23
2018-06-08T07:27:29.788Z,21.26
2018-06-08T07:28:29.779Z,21.29
2018-06-08T07:29:29.793Z,21.32
2018-06-08T07:30:29.807Z,21.23
2018-06-08T07:31:29.887Z,21.34
2018-06-08T07:32:29.833Z,21.38
2018-06-08T07:33:29.848Z,21.39
2018-06-08T07:34:29.861Z,21.42
2018-06-08T07:35:29.873Z,21.50
2018-06-08T07:36:29.884Z,21.54
2018-06-08T07:37:29.904Z,21.59
2018-06-08T07:38:29.913Z,21.66
2018-06-08T07:39:29.924Z,21.75
2018-06-08T07:40:29.945Z,21.61
2018-06-08T07:41:29.950Z,21.63
2018-06-08T07:42:29.973Z,21.60
2018-06-08T07:43:29.985Z,21.66
2018-06-08T07:44:29.994Z,21.54
2018-06-08T07:45:30.013Z,21.57
2018-06-08T07:46:30.019Z,21.60
2018-06-08T07:47:30.033Z,21.66
2018-06-08T07:48:30.052Z,21.63
2018-06-08T07:49:30.063Z,21.72
2018-06-08T07:50:30.078Z,21.66
2018-06-08T07:51:30.089Z,21.78
2018-06-08T07:52:30.108Z,21.78
2018-06-08T07:53:30.113Z,21.76
2018-06-08T07:54:30.129Z,21.72
2018-06-08T07:55:30.163Z,21.79
2018-06-08T07:56:30.152Z,21.92
2018-06-08T07:57:30.168Z,21.83
2018-06-08T07:58:30.200Z,21.97
2018-06-08T07:59:30.199Z,22.02
2018-06-08T08:00:30.210Z,22.01
2018-06-08T08:01:30.222Z,21.97
2018-06-08T08:02:30.243Z,22.02
2018-06-08T08:03:30.255Z,22.04
2018-06-08T08:04:30.266Z,22.06
2018-06-08T08:05:30.281Z,22.09
2018-06-08T08:06:30.304Z,22.12
2018-06-08T08:07:30.317Z,22.10
2018-06-08T08:08:30.316Z,22.22
2018-06-08T08:09:30.332Z,22.27
2018-06-08T08:10:30.346Z,22.19
2018-06-08T08:11:30.366Z,22.22
2018-06-08T08:12:30.375Z,22.25
2018-06-08T08:13:30.390Z,22.20
2018-06-08T08:14:30.405Z,22.22
2018-06-08T08:15:30.415Z,22.20
2018-06-08T08:16:30.432Z,22.16
2018-06-08T08:17:30.443Z,22.17
2018-06-08T08:18:30.460Z,22.12
2018-06-08T08:19:30.482Z,22.19
2018-06-08T08:20:30.486Z,22.16
2018-06-08T08:21:30.503Z,22.17
2018-06-08T08:22:30.517Z,22.19
2018-06-08T08:23:30.526Z,22.19
2018-06-08T08:24:30.539Z,22.20
2018-06-08T08:25:30.558Z,22.39
2018-06-08T08:26:30.569Z,22.50
2018-06-08T08:27:30.580Z,22.44
2018-06-08T08:28:30.598Z,22.50
2018-06-08T08:29:30.611Z,22.52
2018-06-08T08:30:30.622Z,22.50
2018-06-08T08:31:30.636Z,22.65
2018-06-08T08:32:30.650Z,22.74
2018-06-08T08:33:30.662Z,22.80
2018-06-08T08:34:30.680Z,22.69
2018-06-08T08:35:30.705Z,22.77
2018-06-08T08:36:30.713Z,22.71
2018-06-08T08:37:30.721Z,22.72
2018-06-08T08:38:30.739Z,22.56
2018-06-08T08:39:30.747Z,22.56
2018-06-08T08:40:30.765Z,22.53
2018-06-08T08:41:30.774Z,22.59
2018-06-08T08:42:30.793Z,22.50
2018-06-08T08:43:30.806Z,22.38
2018-06-08T08:44:30.823Z,22.39
2018-06-08T08:45:30.830Z,22.47
2018-06-08T08:46:30.844Z,22.49
2018-06-08T08:47:30.863Z,22.60
2018-06-08T08:48:30.876Z,22.71
2018-06-08T08:49:30.890Z,22.80
2018-06-08T08:50:30.907Z,22.80
2018-06-08T08:51:30.956Z,22.90
2018-06-08T08:52:30.934Z,22.96
2018-06-08T08:53:30.943Z,23.04
2018-06-08T08:54:30.958Z,23.04
2018-06-08T08:55:30.973Z,23.09
2018-06-08T08:56:30.984Z,23.05
2018-06-08T08:57:31.001Z,23.02
2018-06-08T08:58:31.012Z,23.04
2018-06-08T08:59:31.030Z,23.09
2018-06-08T09:00:31.041Z,23.14
2018-06-08T09:01:31.058Z,23.19
2018-06-08T09:02:31.076Z,23.24
2018-06-08T09:03:31.082Z,23.32
2018-06-08T09:04:31.101Z,23.22
2018-06-08T09:05:31.113Z,23.19
2018-06-08T09:06:31.131Z,23.29
2018-06-08T09:07:31.148Z,23.31
2018-06-08T09:08:31.155Z,23.38
2018-06-08T09:09:31.169Z,23.50
2018-06-08T09:10:31.206Z,23.50
2018-06-08T09:11:31.256Z,23.52
2018-06-08T09:12:31.212Z,23.65
2018-06-08T09:13:31.225Z,23.65
2018-06-08T09:14:31.245Z,23.55
2018-06-08T09:15:31.257Z,23.47
2018-06-08T09:16:31.271Z,23.61
2018-06-08T09:17:31.283Z,23.68
2018-06-08T09:18:31.306Z,23.64
2018-06-08T09:19:31.314Z,23.61
2018-06-08T09:20:31.326Z,23.62
2018-06-08T09:21:31.352Z,23.72
2018-06-08T09:22:31.357Z,23.71
2018-06-08T09:23:31.372Z,23.60
2018-06-08T09:24:31.388Z,23.64
2018-06-08T09:25:31.420Z,23.70
2018-06-08T09:26:31.417Z,23.76
2018-06-08T09:27:31.432Z,23.92
2018-06-08T09:28:31.445Z,24.02
2018-06-08T09:29:31.462Z,24.13
2018-06-08T09:30:31.476Z,24.24
2018-06-08T09:31:31.490Z,24.39
2018-06-08T09:32:31.506Z,24.41
2018-06-08T09:33:31.520Z,24.56
2018-06-08T09:34:31.540Z,24.50
2018-06-08T09:35:31.554Z,24.49
2018-06-08T09:36:31.574Z,24.56
2018-06-08T09:37:31.603Z,24.63
2018-06-08T09:38:31.595Z,24.59
2018-06-08T09:39:31.608Z,24.69
2018-06-08T09:40:31.623Z,24.52
2018-06-08T09:41:31.640Z,24.56
2018-06-08T09:42:31.658Z,24.75
2018-06-08T09:43:31.681Z,24.71
2018-06-08T09:44:31.683Z,24.45
2018-06-08T09:45:31.703Z,24.45
2018-06-08T09:46:31.716Z,24.49
2018-06-08T09:47:31.727Z,24.42
2018-06-08T09:48:31.744Z,24.50
2018-06-08T09:49:31.759Z,24.24
2018-06-08T09:50:31.775Z,24.41
2018-06-08T09:51:31.794Z,24.47
2018-06-08T09:52:31.814Z,24.22
2018-06-08T09:53:31.819Z,24.24
2018-06-08T09:54:31.835Z,24.35
2018-06-08T09:55:31.878Z,24.49
2018-06-08T09:56:31.870Z,24.49
2018-06-08T09:57:31.880Z,24.69
2018-06-08T09:58:31.894Z,25.00
2018-06-08T09:59:31.912Z,25.27
2018-06-08T10:00:31.925Z,25.28
2018-06-08T10:01:31.943Z,25.32
2018-06-08T10:02:31.964Z,25.52
2018-06-08T10:03:31.976Z,25.35
2018-06-08T10:04:31.990Z,25.28
2018-06-08T10:05:32.013Z,25.07
2018-06-08T10:06:32.021Z,25.25
2018-06-08T10:07:32.043Z,25.38
2018-06-08T10:08:32.052Z,25.50
2018-06-08T10:09:32.065Z,25.52
2018-06-08T10:10:32.082Z,25.57
2018-06-08T10:11:32.102Z,25.67
2018-06-08T10:12:32.127Z,25.69
2018-06-08T10:13:32.129Z,25.71
2018-06-08T10:14:32.143Z,25.82
2018-06-08T10:15:32.163Z,25.91
2018-06-08T10:16:32.183Z,25.99
2018-06-08T10:17:32.220Z,26.09
2018-06-08T10:18:32.231Z,26.15
2018-06-08T10:19:32.228Z,25.97
2018-06-08T10:20:32.242Z,25.61
2018-06-08T10:21:32.256Z,25.30
2018-06-08T10:22:32.270Z,25.32
2018-06-08T10:23:32.290Z,25.34
2018-06-08T10:24:32.303Z,25.27
2018-06-08T10:25:32.331Z,25.27
2018-06-08T10:26:32.339Z,25.27
2018-06-08T10:27:32.358Z,25.38
2018-06-08T10:28:32.369Z,25.39
2018-06-08T10:29:32.385Z,25.30
2018-06-08T10:30:32.400Z,25.39
2018-06-08T10:31:32.419Z,25.57
2018-06-08T10:32:32.434Z,25.72
2018-06-08T10:33:32.451Z,25.72
2018-06-08T10:34:32.460Z,25.39
2018-06-08T10:35:32.477Z,25.38
2018-06-08T10:36:32.506Z,25.09
2018-06-08T10:37:32.528Z,25.25
2018-06-08T10:38:32.541Z,25.27
2018-06-08T10:39:32.541Z,25.37
2018-06-08T10:40:32.561Z,25.57
2018-06-08T10:41:32.580Z,25.79
2018-06-08T10:42:32.588Z,25.98
2018-06-08T10:43:32.604Z,26.20
2018-06-08T10:44:32.616Z,26.29
2018-06-08T10:45:32.642Z,26.44
2018-06-08T10:46:32.676Z,26.55
2018-06-08T10:47:32.671Z,26.62
2018-06-08T10:48:32.681Z,26.50
2018-06-08T10:49:32.704Z,26.61
2018-06-08T10:50:32.720Z,26.76
2018-06-08T10:51:32.736Z,26.81
2018-06-08T10:52:32.746Z,27.01
2018-06-08T10:53:32.760Z,27.01
2018-06-08T10:54:32.778Z,27.10
2018-06-08T10:55:32.825Z,27.16
2018-06-08T10:56:32.823Z,27.06
2018-06-08T10:57:32.834Z,27.01
2018-06-08T10:58:32.844Z,26.94
2018-06-08T10:59:32.856Z,26.87
2018-06-08T11:00:32.874Z,26.74
2018-06-08T11:01:32.905Z,26.72
2018-06-08T11:02:32.923Z,26.50
2018-06-08T11:03:32.925Z,26.44
2018-06-08T11:04:32.949Z,26.49
2018-06-08T11:05:32.960Z,26.61
2018-06-08T11:06:32.973Z,26.80
2018-06-08T11:07:32.990Z,26.91
2018-06-08T11:08:33.005Z,26.76
2018-06-08T11:09:33.024Z,26.86
2018-06-08T11:10:33.040Z,26.74
2018-06-08T11:11:33.055Z,26.77
2018-06-08T11:12:33.115Z,26.61
2018-06-08T11:13:33.089Z,26.50
2018-06-08T11:14:33.104Z,26.54
2018-06-08T11:15:33.124Z,26.42
2018-06-08T11:16:33.142Z,26.37
2018-06-08T11:17:33.154Z,26.44
2018-06-08T11:18:33.180Z,26.61
2018-06-08T11:19:33.191Z,26.80
2018-06-08T11:20:33.220Z,27.04
2018-06-08T11:21:33.230Z,27.19
2018-06-08T11:22:33.251Z,27.35
2018-06-08T11:23:33.252Z,27.38
2018-06-08T11:24:33.270Z,27.54
2018-06-08T11:25:33.290Z,27.57
2018-06-08T11:26:33.306Z,27.74
2018-06-08T11:27:33.329Z,27.79
2018-06-08T11:28:33.340Z,27.86
2018-06-08T11:29:33.355Z,27.99
2018-06-08T11:30:33.370Z,28.22
2018-06-08T11:31:33.394Z,28.35
2018-06-08T11:32:33.402Z,28.62
2018-06-08T11:33:33.432Z,28.82
2018-06-08T11:34:33.440Z,29.25
2018-06-08T11:35:34.418Z,29.57
2018-06-08T11:36:33.473Z,29.86
2018-06-08T11:37:33.492Z,30.46
2018-06-08T11:38:33.540Z,30.12
2018-06-08T11:39:33.568Z,30.61
2018-06-08T11:40:33.808Z,30.86
2018-06-08T11:41:33.569Z,30.78
2018-06-08T11:42:33.593Z,31.57
2018-06-08T11:43:33.617Z,31.82
2018-06-08T11:44:33.638Z,31.73
2018-06-08T11:45:34.420Z,31.85
2018-06-08T11:46:33.676Z,32.02
2018-06-08T11:47:33.697Z,32.51
2018-06-08T11:48:33.719Z,32.95
2018-06-08T11:49:33.743Z,33.63
2018-06-08T11:50:33.764Z,34.19
2018-06-08T11:51:33.793Z,34.16
2018-06-08T11:52:33.817Z,34.42
2018-06-08T11:53:33.846Z,34.36
2018-06-08T11:54:33.856Z,34.51
2018-06-08T11:55:33.881Z,34.79
2018-06-08T11:56:33.903Z,32.47
2018-06-08T11:57:33.935Z,32.36
2018-06-08T11:58:33.955Z,32.69
2018-06-08T11:59:33.987Z,33.27
2018-06-08T12:00:34.000Z,32.57
2018-06-08T12:01:34.023Z,33.22
2018-06-08T12:02:34.055Z,33.45
2018-06-08T12:03:34.076Z,33.36
2018-06-08T12:04:34.112Z,33.98
2018-06-08T12:05:34.122Z,34.34
2018-06-08T12:06:34.152Z,34.23
2018-06-08T12:07:34.175Z,34.11
2018-06-08T12:08:34.203Z,33.11
2018-06-08T12:09:34.230Z,33.60
2018-06-08T12:10:34.266Z,32.48
2018-06-08T12:11:34.279Z,32.33
2018-06-08T12:12:34.315Z,31.91
2018-06-08T12:13:34.338Z,31.64
2018-06-08T12:14:34.374Z,31.49
2018-06-08T12:15:34.391Z,31.54
2018-06-08T12:16:34.417Z,31.35
2018-06-08T12:17:34.436Z,32.18
2018-06-08T12:18:34.458Z,32.84
2018-06-08T12:19:34.483Z,32.70
2018-06-08T12:20:34.505Z,32.29
2018-06-08T12:21:34.533Z,32.25
2018-06-08T12:22:34.560Z,32.98
2018-06-08T12:23:34.578Z,34.11
2018-06-08T12:24:34.606Z,35.01
2018-06-08T12:25:34.626Z,34.27
2018-06-08T12:26:34.650Z,33.36
2018-06-08T12:27:34.898Z,33.65
2018-06-08T12:28:34.697Z,34.07
2018-06-08T12:29:34.722Z,34.09
2018-06-08T12:30:34.745Z,33.95
2018-06-08T12:31:34.784Z,33.80
2018-06-08T12:32:34.793Z,33.30
2018-06-08T12:33:34.818Z,32.71
2018-06-08T12:34:35.433Z,32.36
2018-06-08T12:35:34.866Z,31.95
2018-06-08T12:36:34.886Z,31.43
2018-06-08T12:37:34.912Z,31.11
2018-06-08T12:38:34.942Z,30.93
2018-06-08T12:39:34.965Z,30.31
2018-06-08T12:40:34.978Z,29.90
2018-06-08T12:41:35.002Z,29.77
2018-06-08T12:42:35.024Z,29.52
2018-06-08T12:43:35.061Z,29.43
2018-06-08T12:44:35.074Z,29.71
2018-06-08T12:45:35.092Z,29.79
2018-06-08T12:46:35.123Z,29.97
2018-06-08T12:47:35.153Z,30.89
2018-06-08T12:48:35.155Z,31.53
2018-06-08T12:49:35.172Z,32.55
2018-06-08T12:50:35.201Z,33.53
2018-06-08T12:51:35.225Z,33.57
2018-06-08T12:52:35.235Z,33.57
2018-06-08T12:53:35.258Z,34.19
2018-06-08T12:54:35.285Z,34.89
2018-06-08T12:55:35.312Z,35.77
2018-06-08T12:56:35.324Z,36.27
2018-06-08T12:57:35.350Z,35.69
2018-06-08T12:58:35.375Z,35.20
2018-06-08T12:59:35.394Z,34.46